createdAt,value
2022-10-13T00:00:48.932Z,10.50
2022-10-13T00:03:17.077Z,10.50
2022-10-13T00:05:48.144Z,10.50
2022-10-13T00:08:19.665Z,10.50
2022-10-13T00:10:48.840Z,10.50
2022-10-13T00:13:20.686Z,10.50
2022-10-13T00:15:49.709Z,10.50
2022-10-13T00:18:17.908Z,10.50
2022-10-13T00:20:48.652Z,10.50
2022-10-13T00:23:17.554Z,10.50
2022-10-13T00:25:46.772Z,10.50
2022-10-13T00:28:15.642Z,10.50
2022-10-13T00:30:43.510Z,10.50
2022-10-13T00:33:12.136Z,10.50
2022-10-13T00:35:45.133Z,10.40
2022-10-13T00:38:17.850Z,10.50
2022-10-13T00:40:47.416Z,10.40
2022-10-13T00:43:18.616Z,10.40
2022-10-13T00:45:49.704Z,10.40
2022-10-13T00:48:19.042Z,10.40
2022-10-13T00:50:47.722Z,10.30
2022-10-13T00:53:19.062Z,10.30
2022-10-13T00:55:48.429Z,10.30
2022-10-13T00:58:19.439Z,10.20
2022-10-13T01:00:49.943Z,10.20
2022-10-13T01:03:19.310Z,10.20
2022-10-13T01:05:49.289Z,10.20
2022-10-13T01:08:20.566Z,10.10
2022-10-13T01:10:57.785Z,10.10
2022-10-13T01:13:32.930Z,10.00
2022-10-13T01:16:13.974Z,10.00
2022-10-13T01:18:47.709Z,10.00
2022-10-13T01:21:24.768Z,10.00
2022-10-13T01:24:43.640Z,10.00
2022-10-13T01:27:31.524Z,10.00
2022-10-13T01:30:17.610Z,10.00
2022-10-13T01:32:58.280Z,10.00
2022-10-13T01:35:36.493Z,10.00
2022-10-13T01:38:09.342Z,10.00
2022-10-13T01:40:43.877Z,9.90
2022-10-13T01:43:15.834Z,10.00
2022-10-13T01:45:51.136Z,10.00
2022-10-13T01:48:20.752Z,10.00
2022-10-13T01:50:53.997Z,9.90
2022-10-13T01:53:23.973Z,9.90
2022-10-13T01:55:56.364Z,9.90
2022-10-13T01:58:25.914Z,9.80
2022-10-13T02:01:11.308Z,9.80
2022-10-13T02:03:50.488Z,9.80
2022-10-13T02:06:23.450Z,9.70
2022-10-13T02:08:59.298Z,9.70
2022-10-13T02:11:29.030Z,9.60
2022-10-13T02:14:02.958Z,9.60
2022-10-13T02:16:36.135Z,9.60
2022-10-13T02:19:07.170Z,9.60
2022-10-13T02:21:35.396Z,9.50
2022-10-13T02:24:04.277Z,9.50
2022-10-13T02:26:33.080Z,9.50
2022-10-13T02:29:11.562Z,9.40
2022-10-13T02:31:41.986Z,9.40
2022-10-13T02:34:10.253Z,9.40
2022-10-13T02:36:38.984Z,9.30
2022-10-13T02:39:07.568Z,9.30
2022-10-13T02:41:35.589Z,9.30
2022-10-13T02:44:03.439Z,9.20
2022-10-13T02:46:43.038Z,9.20
2022-10-13T02:49:11.656Z,9.10
2022-10-13T02:51:40.607Z,9.10
2022-10-13T02:54:09.181Z,9.10
2022-10-13T02:56:36.987Z,9.00
2022-10-13T02:59:04.892Z,9.00
2022-10-13T03:01:32.835Z,9.00
2022-10-13T03:04:02.117Z,8.90
2022-10-13T03:06:29.918Z,8.90
2022-10-13T03:08:57.768Z,8.90
2022-10-13T03:11:25.798Z,8.90
2022-10-13T03:13:54.126Z,8.90
2022-10-13T03:16:21.953Z,8.90
2022-10-13T03:18:49.761Z,8.90
2022-10-13T03:21:18.960Z,8.90
2022-10-13T03:23:46.847Z,8.90
2022-10-13T03:26:15.465Z,8.90
2022-10-13T03:28:43.328Z,8.90
2022-10-13T03:31:13.137Z,8.90
2022-10-13T03:33:41.608Z,8.90
2022-10-13T03:36:09.655Z,8.90
2022-10-13T03:38:40.429Z,8.90
2022-10-13T03:41:12.081Z,8.90
2022-10-13T03:43:40.514Z,8.90
2022-10-13T03:46:09.445Z,9.00
2022-10-13T03:48:38.405Z,9.00
2022-10-13T03:51:07.403Z,9.10
2022-10-13T03:53:35.421Z,9.10
2022-10-13T03:56:05.566Z,9.10
2022-10-13T03:58:36.395Z,9.10
2022-10-13T04:01:05.820Z,9.20
2022-10-13T04:03:34.802Z,9.20
2022-10-13T04:06:03.334Z,9.20
2022-10-13T04:08:31.901Z,9.20
2022-10-13T04:11:00.877Z,9.20
2022-10-13T04:13:30.141Z,9.20
2022-10-13T04:16:02.811Z,9.10
2022-10-13T04:18:30.883Z,9.10
2022-10-13T04:20:58.668Z,9.10
2022-10-13T04:23:26.508Z,9.10
2022-10-13T04:25:54.337Z,9.20
2022-10-13T04:28:22.235Z,9.20
2022-10-13T04:30:51.430Z,9.10
2022-10-13T04:33:19.426Z,9.10
2022-10-13T04:35:47.195Z,9.20
2022-10-13T04:38:15.050Z,9.20
2022-10-13T04:40:42.877Z,9.20
2022-10-13T04:43:10.718Z,9.20
2022-10-13T04:45:38.491Z,9.30
2022-10-13T04:48:07.935Z,9.20
2022-10-13T04:50:35.702Z,9.30
2022-10-13T04:53:03.524Z,9.30
2022-10-13T04:55:31.344Z,9.30
2022-10-13T04:57:59.146Z,9.30
2022-10-13T05:00:26.971Z,9.30
2022-10-13T05:02:54.837Z,9.30
2022-10-13T05:05:23.968Z,9.40
2022-10-13T05:07:51.820Z,9.40
2022-10-13T05:10:19.798Z,9.30
2022-10-13T05:12:47.676Z,9.30
2022-10-13T05:15:15.477Z,9.30
2022-10-13T05:17:43.325Z,9.30
2022-10-13T05:20:12.145Z,9.30
2022-10-13T05:22:41.297Z,9.30
2022-10-13T05:25:09.548Z,9.30
2022-10-13T05:27:37.411Z,9.30
2022-10-13T05:30:09.378Z,9.20
2022-10-13T05:32:37.185Z,9.20
2022-10-13T05:35:05.602Z,9.20
2022-10-13T05:37:33.416Z,9.10
2022-10-13T05:40:02.525Z,9.10
2022-10-13T05:42:30.899Z,9.10
2022-10-13T05:44:58.761Z,9.10
2022-10-13T05:47:28.407Z,9.10
2022-10-13T05:49:57.053Z,9.10
2022-10-13T05:52:26.460Z,9.10
2022-10-13T05:54:59.665Z,9.10
2022-10-13T05:57:33.692Z,9.10
2022-10-13T06:00:05.204Z,9.10
2022-10-13T06:02:44.269Z,9.10
2022-10-13T06:05:15.511Z,9.10
2022-10-13T06:07:44.595Z,9.10
2022-10-13T06:10:12.505Z,9.10
2022-10-13T06:12:41.727Z,9.20
2022-10-13T06:15:10.767Z,9.20
2022-10-13T06:17:39.462Z,9.20
2022-10-13T06:20:08.905Z,9.30
2022-10-13T06:22:37.879Z,9.40
2022-10-13T06:25:07.439Z,9.40
2022-10-13T06:27:35.460Z,9.50
2022-10-13T06:30:04.920Z,9.50
2022-10-13T06:32:32.760Z,9.50
2022-10-13T06:35:00.573Z,9.60
2022-10-13T06:37:28.423Z,9.50
2022-10-13T06:39:56.229Z,9.60
2022-10-13T06:42:24.215Z,9.60
2022-10-13T06:45:11.272Z,9.70
2022-10-13T06:47:41.564Z,9.70
2022-10-13T06:50:10.225Z,9.80
2022-10-13T06:52:38.168Z,9.80
2022-10-13T06:55:06.796Z,9.80
2022-10-13T06:57:35.809Z,9.80
2022-10-13T07:00:08.092Z,9.80
2022-10-13T07:02:37.667Z,9.80
2022-10-13T07:05:06.145Z,9.80
2022-10-13T07:07:34.034Z,9.80
2022-10-13T07:10:01.828Z,9.90
2022-10-13T07:12:29.627Z,9.90
2022-10-13T07:14:57.432Z,10.00
2022-10-13T07:17:25.530Z,10.00
2022-10-13T07:19:57.834Z,10.00
2022-10-13T07:22:26.194Z,10.00
2022-10-13T07:24:54.000Z,10.00
2022-10-13T07:27:23.712Z,10.00
2022-10-13T07:29:51.830Z,10.10
2022-10-13T07:32:19.615Z,10.20
2022-10-13T07:34:47.497Z,10.20
2022-10-13T07:37:16.716Z,10.40
2022-10-13T07:39:44.601Z,10.50
2022-10-13T07:42:12.357Z,10.60
2022-10-13T07:44:40.262Z,10.70
2022-10-13T07:47:08.035Z,10.80
2022-10-13T07:49:35.867Z,10.90
2022-10-13T07:52:05.734Z,11.10
2022-10-13T07:54:34.955Z,11.10
2022-10-13T07:57:03.197Z,11.10
2022-10-13T07:59:33.050Z,11.20
2022-10-13T08:02:01.520Z,11.20
2022-10-13T08:04:31.046Z,11.20
2022-10-13T08:06:59.307Z,11.30
2022-10-13T08:09:27.609Z,11.30
2022-10-13T08:12:00.540Z,11.30
2022-10-13T08:14:30.248Z,11.40
2022-10-13T08:16:58.632Z,11.40
2022-10-13T08:19:26.698Z,11.40
2022-10-13T08:21:59.527Z,11.40
2022-10-13T08:24:28.758Z,11.50
2022-10-13T08:26:57.968Z,11.50
2022-10-13T08:29:25.834Z,11.50
2022-10-13T08:31:54.535Z,11.50
2022-10-13T08:34:22.833Z,11.50
2022-10-13T08:36:52.963Z,11.70
2022-10-13T08:39:22.122Z,11.70
2022-10-13T08:41:50.513Z,11.80
2022-10-13T08:45:10.770Z,11.90
2022-10-13T08:47:21.465Z,11.90
2022-10-13T08:49:49.642Z,12.00
2022-10-13T08:52:20.793Z,12.10
2022-10-13T08:54:50.310Z,12.20
2022-10-13T08:57:19.477Z,12.30
2022-10-13T08:59:49.515Z,12.30
2022-10-13T09:02:26.323Z,12.30
2022-10-13T09:04:54.982Z,12.50
2022-10-13T09:07:27.378Z,12.50
2022-10-13T09:09:56.440Z,12.60
2022-10-13T09:12:26.777Z,12.60
2022-10-13T09:15:03.242Z,12.60
2022-10-13T09:17:31.866Z,12.60
2022-10-13T09:20:03.088Z,12.60
2022-10-13T09:22:33.888Z,12.60
2022-10-13T09:25:19.231Z,12.60
2022-10-13T09:27:49.533Z,12.70
2022-10-13T09:30:38.117Z,12.80
2022-10-13T09:33:29.732Z,13.00
2022-10-13T09:36:11.592Z,13.00
2022-10-13T09:38:42.073Z,13.00
2022-10-13T09:41:20.624Z,13.10
2022-10-13T09:44:12.471Z,13.20
2022-10-13T09:46:48.662Z,13.40
2022-10-13T09:49:39.007Z,13.50
2022-10-13T09:52:16.246Z,13.50
2022-10-13T09:54:47.517Z,13.60
2022-10-13T09:57:26.379Z,13.80
2022-10-13T09:59:59.761Z,13.90
2022-10-13T10:02:34.571Z,13.90
2022-10-13T10:05:07.885Z,13.90
2022-10-13T10:07:35.950Z,14.00
2022-10-13T10:10:09.165Z,14.00
2022-10-13T10:12:40.669Z,14.10
2022-10-13T10:15:19.077Z,14.10
2022-10-13T10:17:53.566Z,14.30
2022-10-13T10:20:51.598Z,14.40
2022-10-13T10:23:29.543Z,14.30
2022-10-13T10:26:02.365Z,14.40
2022-10-13T10:29:07.463Z,14.40
2022-10-13T10:31:58.300Z,14.50
2022-10-13T10:34:37.475Z,14.50
2022-10-13T10:37:25.298Z,14.60
2022-10-13T10:40:03.979Z,14.70
2022-10-13T10:42:57.775Z,14.60
2022-10-13T10:45:27.874Z,14.70
2022-10-13T10:48:00.175Z,14.80
2022-10-13T10:50:31.907Z,14.90
2022-10-13T10:53:05.267Z,14.90
2022-10-13T10:55:37.776Z,15.10
2022-10-13T10:58:21.119Z,15.10
2022-10-13T11:00:56.367Z,15.00
2022-10-13T11:03:36.552Z,15.00
2022-10-13T11:06:21.691Z,15.00
2022-10-13T11:08:50.386Z,15.00
2022-10-13T11:11:37.673Z,15.10
2022-10-13T11:14:29.923Z,15.20
2022-10-13T11:17:11.606Z,15.30
2022-10-13T11:19:40.761Z,15.20
2022-10-13T11:22:25.758Z,15.30
2022-10-13T11:24:59.082Z,15.30
2022-10-13T11:27:44.254Z,15.30
2022-10-13T11:30:49.792Z,15.40
2022-10-13T11:33:53.230Z,15.40
2022-10-13T11:36:48.980Z,15.50
2022-10-13T11:40:00.307Z,15.60
2022-10-13T11:42:52.298Z,15.80
2022-10-13T11:45:35.573Z,15.80
2022-10-13T11:48:41.305Z,15.90
2022-10-13T11:51:25.569Z,16.00
2022-10-13T11:53:59.606Z,16.20
2022-10-13T11:56:39.668Z,16.20
2022-10-13T11:59:21.783Z,16.30
2022-10-13T12:01:53.703Z,16.30
2022-10-13T12:04:23.802Z,16.20
2022-10-13T12:07:01.161Z,16.20
2022-10-13T12:09:31.491Z,16.30
2022-10-13T12:12:04.303Z,16.20
2022-10-13T12:17:23.758Z,16.10
2022-10-13T12:19:52.361Z,16.20
2022-10-13T12:22:20.239Z,16.20
2022-10-13T12:24:59.438Z,16.30
2022-10-13T12:27:32.429Z,16.40
2022-10-13T12:30:00.445Z,16.50
2022-10-13T12:32:30.670Z,16.70
2022-10-13T12:35:11.538Z,16.80
2022-10-13T12:37:39.515Z,16.70
2022-10-13T12:40:13.543Z,16.70
2022-10-13T12:42:43.321Z,16.60
2022-10-13T12:45:16.538Z,16.50
2022-10-13T12:47:52.026Z,16.40
2022-10-13T12:50:39.105Z,16.50
2022-10-13T12:53:17.799Z,16.40
2022-10-13T12:55:56.165Z,16.40
2022-10-13T12:58:28.646Z,16.40
2022-10-13T13:01:07.479Z,16.40
2022-10-13T13:03:38.267Z,16.30
2022-10-13T13:06:32.130Z,16.30
2022-10-13T13:09:25.441Z,16.30
2022-10-13T13:12:15.779Z,16.30
2022-10-13T13:14:48.279Z,16.40
2022-10-13T13:17:38.855Z,16.40
2022-10-13T13:20:22.166Z,16.40
2022-10-13T13:22:50.820Z,16.40
2022-10-13T13:25:18.644Z,16.50
2022-10-13T13:27:46.470Z,16.50
2022-10-13T13:30:21.396Z,16.60
2022-10-13T13:32:50.219Z,16.60
2022-10-13T13:35:18.390Z,16.60
2022-10-13T13:37:49.540Z,16.50
2022-10-13T13:40:19.290Z,16.60
2022-10-13T13:42:47.160Z,16.60
2022-10-13T13:45:15.724Z,16.60
2022-10-13T13:47:45.438Z,16.60
2022-10-13T13:50:17.525Z,16.60
2022-10-13T13:52:48.530Z,16.60
2022-10-13T13:55:16.471Z,16.70
2022-10-13T13:57:45.166Z,16.70
2022-10-13T14:00:14.615Z,16.60
2022-10-13T14:02:44.957Z,16.60
2022-10-13T14:05:13.295Z,16.50
2022-10-13T14:07:42.168Z,16.60
2022-10-13T14:10:12.038Z,16.60
2022-10-13T14:12:39.979Z,16.50
2022-10-13T14:15:08.902Z,16.40
2022-10-13T14:17:36.741Z,16.40
2022-10-13T14:20:06.947Z,16.30
2022-10-13T14:22:39.280Z,16.30
2022-10-13T14:25:08.790Z,16.30
2022-10-13T14:27:36.923Z,16.30
2022-10-13T14:30:06.290Z,16.30
2022-10-13T14:32:35.124Z,16.30
2022-10-13T14:35:02.921Z,16.30
2022-10-13T14:37:33.780Z,16.30
2022-10-13T14:40:02.136Z,16.30
2022-10-13T14:42:29.958Z,16.30
2022-10-13T14:44:57.773Z,16.40
2022-10-13T14:47:25.555Z,16.40
2022-10-13T14:49:53.329Z,16.40
2022-10-13T14:52:21.257Z,16.40
2022-10-13T14:54:50.616Z,16.40
2022-10-13T14:57:19.292Z,16.40
2022-10-13T14:59:47.750Z,16.40
2022-10-13T15:02:15.738Z,16.40
2022-10-13T15:04:52.346Z,16.50
2022-10-13T15:07:20.493Z,16.50
2022-10-13T15:10:04.484Z,16.50
2022-10-13T15:12:33.702Z,16.50
2022-10-13T15:15:01.486Z,16.50
2022-10-13T15:17:30.726Z,16.50
2022-10-13T15:19:58.622Z,16.50
2022-10-13T15:22:26.588Z,16.50
2022-10-13T15:24:55.795Z,16.50
2022-10-13T15:27:23.740Z,16.50
2022-10-13T15:29:51.651Z,16.40
2022-10-13T15:32:20.435Z,16.40
2022-10-13T15:34:55.881Z,16.40
2022-10-13T15:37:23.750Z,16.40
2022-10-13T15:39:56.835Z,16.40
2022-10-13T15:42:26.832Z,16.30
2022-10-13T15:45:09.237Z,16.30
2022-10-13T15:47:38.150Z,16.20
2022-10-13T15:50:06.575Z,16.20
2022-10-13T15:52:38.751Z,16.20
2022-10-13T15:55:07.158Z,16.10
2022-10-13T15:57:36.395Z,16.20
2022-10-13T16:00:05.373Z,16.20
2022-10-13T16:02:41.162Z,16.20
2022-10-13T16:05:10.980Z,16.10
2022-10-13T16:07:40.066Z,16.10
2022-10-13T16:10:08.920Z,16.10
2022-10-13T16:12:38.363Z,16.00
2022-10-13T16:15:07.090Z,16.00
2022-10-13T16:17:34.937Z,16.00
2022-10-13T16:20:02.798Z,15.90
2022-10-13T16:22:30.721Z,15.90
2022-10-13T16:24:58.709Z,15.80
2022-10-13T16:27:26.640Z,15.80
2022-10-13T16:29:55.885Z,15.80
2022-10-13T16:32:23.778Z,15.70
2022-10-13T16:34:51.732Z,15.70
2022-10-13T16:37:20.705Z,15.70
2022-10-13T16:39:51.630Z,15.60
2022-10-13T16:42:20.068Z,15.60
2022-10-13T16:44:47.864Z,15.50
2022-10-13T16:47:18.669Z,15.60
2022-10-13T16:49:47.006Z,15.50
2022-10-13T16:52:15.938Z,15.50
2022-10-13T16:54:44.913Z,15.50
2022-10-13T16:57:12.722Z,15.50
2022-10-13T16:59:40.567Z,15.50
2022-10-13T17:02:12.365Z,15.40
2022-10-13T17:04:43.314Z,15.40
2022-10-13T17:07:11.201Z,15.40
2022-10-13T17:09:39.073Z,15.40
2022-10-13T17:12:07.540Z,15.40
2022-10-13T17:14:35.320Z,15.30
2022-10-13T17:17:03.221Z,15.30
2022-10-13T17:19:31.070Z,15.30
2022-10-13T17:22:00.228Z,15.30
2022-10-13T17:24:29.762Z,15.30
2022-10-13T17:26:57.718Z,15.30
2022-10-13T17:29:25.601Z,15.30
2022-10-13T17:31:54.542Z,15.30
2022-10-13T17:34:23.218Z,15.20
2022-10-13T17:36:52.378Z,15.20
2022-10-13T17:39:21.643Z,15.20
2022-10-13T17:41:49.508Z,15.20
2022-10-13T17:44:20.375Z,15.20
2022-10-13T17:46:49.444Z,15.20
2022-10-13T17:49:17.537Z,15.10
2022-10-13T17:51:46.286Z,15.10
2022-10-13T17:54:16.414Z,15.10
2022-10-13T17:56:47.322Z,15.10
2022-10-13T17:59:16.262Z,15.10
2022-10-13T18:01:44.900Z,15.10
2022-10-13T18:04:15.040Z,15.10
2022-10-13T18:06:44.256Z,15.10
2022-10-13T18:09:14.138Z,15.10
2022-10-13T18:11:47.110Z,15.00
2022-10-13T18:14:19.886Z,15.10
2022-10-13T18:16:49.616Z,15.00
2022-10-13T18:19:17.660Z,15.00
2022-10-13T18:21:45.542Z,14.80
2022-10-13T18:24:13.396Z,14.60
2022-10-13T18:26:41.297Z,14.50
2022-10-13T18:29:11.147Z,14.50
2022-10-13T18:31:41.974Z,14.60
2022-10-13T18:34:12.896Z,14.60
2022-10-13T18:36:42.340Z,14.50
2022-10-13T18:39:13.824Z,14.50
2022-10-13T18:41:43.233Z,14.60
2022-10-13T18:44:11.459Z,14.60
2022-10-13T18:46:41.355Z,14.60
2022-10-13T18:49:13.306Z,14.70
2022-10-13T18:51:43.186Z,14.70
2022-10-13T18:54:11.978Z,14.80
2022-10-13T18:56:39.894Z,14.80
2022-10-13T18:59:09.375Z,14.80
2022-10-13T19:01:38.695Z,14.80
2022-10-13T19:04:08.552Z,14.80
2022-10-13T19:06:36.476Z,14.80
2022-10-13T19:09:06.867Z,14.80
2022-10-13T19:11:38.041Z,14.80
2022-10-13T19:14:08.775Z,14.80
2022-10-13T19:16:38.515Z,14.80
2022-10-13T19:19:09.062Z,14.80
2022-10-13T19:21:37.583Z,14.80
2022-10-13T19:24:06.801Z,14.80
2022-10-13T19:26:36.230Z,14.80
2022-10-13T19:29:07.708Z,14.80
2022-10-13T19:31:36.999Z,14.80
2022-10-13T19:34:10.067Z,14.80
2022-10-13T19:36:40.003Z,14.80
2022-10-13T19:39:11.853Z,14.80
2022-10-13T19:41:40.162Z,14.80
2022-10-13T19:44:08.225Z,14.80
2022-10-13T19:46:39.938Z,14.80
2022-10-13T19:49:09.671Z,14.70
2022-10-13T19:51:38.503Z,14.70
2022-10-13T19:54:06.500Z,14.70
2022-10-13T19:56:36.331Z,14.70
2022-10-13T19:59:05.884Z,14.70
2022-10-13T20:01:39.596Z,14.70
2022-10-13T20:04:10.114Z,14.70
2022-10-13T20:06:39.212Z,14.70
2022-10-13T20:09:07.200Z,14.70
2022-10-13T20:11:35.129Z,14.60
2022-10-13T20:14:03.534Z,14.60
2022-10-13T20:16:31.442Z,14.60
2022-10-13T20:19:01.199Z,14.60
2022-10-13T20:21:30.677Z,14.60
2022-10-13T20:23:58.654Z,14.50
2022-10-13T20:26:26.931Z,14.60
2022-10-13T20:28:55.258Z,14.50
2022-10-13T20:31:23.667Z,14.50
2022-10-13T20:33:55.119Z,14.50
2022-10-13T20:36:24.267Z,14.50
2022-10-13T20:38:53.861Z,14.50
2022-10-13T20:41:24.606Z,14.50
2022-10-13T20:43:54.117Z,14.50
2022-10-13T20:46:23.544Z,14.40
2022-10-13T20:51:40.848Z,14.40
2022-10-13T20:54:10.561Z,14.40
2022-10-13T20:56:38.486Z,14.40
2022-10-13T20:59:08.299Z,14.40
2022-10-13T21:01:36.815Z,14.40
2022-10-13T21:04:05.205Z,14.40
2022-10-13T21:06:33.325Z,14.30
2022-10-13T21:09:01.628Z,14.30
2022-10-13T21:11:30.907Z,14.30
2022-10-13T21:13:58.855Z,14.30
2022-10-13T21:16:28.878Z,14.40
2022-10-13T21:18:58.174Z,14.40
2022-10-13T21:21:27.407Z,14.30
2022-10-13T21:23:57.222Z,14.40
2022-10-13T21:26:27.515Z,14.40
2022-10-13T21:28:57.256Z,14.40
2022-10-13T21:31:26.345Z,14.40
2022-10-13T21:33:54.730Z,14.40
2022-10-13T21:36:25.054Z,14.40
2022-10-13T21:38:54.791Z,14.40
2022-10-13T21:41:23.352Z,14.40
2022-10-13T21:43:51.480Z,14.50
2022-10-13T21:46:24.976Z,14.40
2022-10-13T21:48:58.048Z,14.40
2022-10-13T21:51:29.510Z,14.40
2022-10-13T21:53:59.382Z,14.40
2022-10-13T21:56:28.274Z,14.40
2022-10-13T21:58:56.892Z,14.40
2022-10-13T22:01:26.248Z,14.40
2022-10-13T22:03:56.118Z,14.40
2022-10-13T22:06:28.015Z,14.40
2022-10-13T22:08:57.643Z,14.40
2022-10-13T22:11:27.900Z,14.40
2022-10-13T22:13:56.979Z,14.50
2022-10-13T22:16:29.579Z,14.40
2022-10-13T22:18:58.585Z,14.40
2022-10-13T22:21:30.412Z,14.40
2022-10-13T22:23:59.762Z,14.40
2022-10-13T22:26:30.090Z,14.30
2022-10-13T22:28:58.931Z,14.40
2022-10-13T22:31:29.401Z,14.30
2022-10-13T22:33:57.659Z,14.30
2022-10-13T22:36:26.891Z,14.30
2022-10-13T22:38:59.110Z,14.30
2022-10-13T22:41:27.146Z,14.30
2022-10-13T22:43:56.867Z,14.30
2022-10-13T22:46:27.299Z,14.30
2022-10-13T22:48:57.576Z,14.30
2022-10-13T22:51:28.126Z,14.30
2022-10-13T22:53:56.418Z,14.30
2022-10-13T22:56:27.148Z,14.30
2022-10-13T22:58:57.689Z,14.30
2022-10-13T23:01:26.638Z,14.30
2022-10-13T23:03:57.822Z,14.30
2022-10-13T23:06:27.700Z,14.30
2022-10-13T23:08:56.177Z,14.30
2022-10-13T23:11:24.321Z,14.30
2022-10-13T23:13:52.144Z,14.30
2022-10-13T23:16:22.589Z,14.30
2022-10-13T23:18:51.068Z,14.30
2022-10-13T23:21:28.209Z,14.30
2022-10-13T23:23:57.169Z,14.30
2022-10-13T23:26:25.339Z,14.30
2022-10-13T23:28:54.434Z,14.30
2022-10-13T23:31:22.409Z,14.30
2022-10-13T23:33:50.422Z,14.30
2022-10-13T23:36:20.027Z,14.30
2022-10-13T23:38:55.232Z,14.30
2022-10-13T23:41:23.222Z,14.30
2022-10-13T23:43:51.001Z,14.30
2022-10-13T23:46:19.137Z,14.30
2022-10-13T23:48:47.200Z,14.30
2022-10-13T23:51:16.894Z,14.30
2022-10-13T23:53:45.163Z,14.30
2022-10-13T23:56:15.101Z,14.30
2022-10-13T23:58:44.157Z,14.30
